sensor_id;sensor_type;location;lat;lon;timestamp;P1;durP1;ratioP1;P2;durP2;ratioP2
78840;SDS011;68379;47.190;27.558;2023-05-10T00:00:08;11.80;;;6.50;;
78840;SDS011;68379;47.190;27.558;2023-05-10T00:02:59;10.20;;;6.70;;
78840;SDS011;68379;47.190;27.558;2023-05-10T00:05:28;10.00;;;7.00;;
78840;SDS011;68379;47.190;27.558;2023-05-10T00:07:57;10.00;;;6.20;;
78840;SDS011;68379;47.190;27.558;2023-05-10T00:10:29;10.00;;;7.10;;
78840;SDS011;68379;47.190;27.558;2023-05-10T00:12:58;11.90;;;6.80;;
78840;SDS011;68379;47.190;27.558;2023-05-10T00:15:27;11.90;;;7.00;;
78840;SDS011;68379;47.190;27.558;2023-05-10T00:17:57;9.60;;;6.40;;
78840;SDS011;68379;47.190;27.558;2023-05-10T00:20:26;13.20;;;6.90;;
78840;SDS011;68379;47.190;27.558;2023-05-10T00:22:55;10.50;;;6.50;;
78840;SDS011;68379;47.190;27.558;2023-05-10T00:25:24;10.80;;;6.30;;
78840;SDS011;68379;47.190;27.558;2023-05-10T00:27:53;11.90;;;6.80;;
78840;SDS011;68379;47.190;27.558;2023-05-10T00:30:24;11.10;;;6.30;;
78840;SDS011;68379;47.190;27.558;2023-05-10T00:32:53;13.00;;;7.00;;
78840;SDS011;68379;47.190;27.558;2023-05-10T00:35:22;9.90;;;6.50;;
78840;SDS011;68379;47.190;27.558;2023-05-10T00:37:52;15.80;;;7.70;;
78840;SDS011;68379;47.190;27.558;2023-05-10T00:40:21;10.50;;;6.20;;
78840;SDS011;68379;47.190;27.558;2023-05-10T00:42:51;12.30;;;7.10;;
78840;SDS011;68379;47.190;27.558;2023-05-10T00:45:20;10.30;;;6.50;;
78840;SDS011;68379;47.190;27.558;2023-05-10T00:47:49;11.30;;;7.00;;
78840;SDS011;68379;47.190;27.558;2023-05-10T00:50:22;11.70;;;7.90;;
78840;SDS011;68379;47.190;27.558;2023-05-10T00:52:52;10.90;;;8.10;;
78840;SDS011;68379;47.190;27.558;2023-05-10T00:55:22;11.30;;;7.30;;
78840;SDS011;68379;47.190;27.558;2023-05-10T00:57:51;11.00;;;6.50;;
78840;SDS011;68379;47.190;27.558;2023-05-10T01:00:21;11.50;;;6.90;;
78840;SDS011;68379;47.190;27.558;2023-05-10T01:02:50;11.80;;;7.80;;
78840;SDS011;68379;47.190;27.558;2023-05-10T01:05:20;11.40;;;7.20;;
78840;SDS011;68379;47.190;27.558;2023-05-10T01:07:49;11.20;;;6.60;;
78840;SDS011;68379;47.190;27.558;2023-05-10T01:10:18;13.60;;;7.10;;
78840;SDS011;68379;47.190;27.558;2023-05-10T01:12:47;13.70;;;7.80;;
78840;SDS011;68379;47.190;27.558;2023-05-10T01:15:16;11.90;;;7.30;;
78840;SDS011;68379;47.190;27.558;2023-05-10T01:17:47;12.50;;;7.50;;
78840;SDS011;68379;47.190;27.558;2023-05-10T01:20:17;12.80;;;7.10;;
78840;SDS011;68379;47.190;27.558;2023-05-10T01:23:03;12.30;;;7.40;;
78840;SDS011;68379;47.190;27.558;2023-05-10T01:26:02;13.00;;;7.20;;
78840;SDS011;68379;47.190;27.558;2023-05-10T01:29:01;9.90;;;7.00;;
78840;SDS011;68379;47.190;27.558;2023-05-10T01:32:10;11.50;;;7.40;;
78840;SDS011;68379;47.190;27.558;2023-05-10T01:34:57;10.60;;;6.60;;
78840;SDS011;68379;47.190;27.558;2023-05-10T01:37:33;10.70;;;6.80;;
78840;SDS011;68379;47.190;27.558;2023-05-10T01:40:12;15.50;;;7.70;;
78840;SDS011;68379;47.190;27.558;2023-05-10T01:42:47;11.90;;;8.00;;
78840;SDS011;68379;47.190;27.558;2023-05-10T01:45:21;13.60;;;7.60;;
78840;SDS011;68379;47.190;27.558;2023-05-10T01:48:02;11.10;;;7.30;;
78840;SDS011;68379;47.190;27.558;2023-05-10T01:50:35;11.30;;;7.10;;
78840;SDS011;68379;47.190;27.558;2023-05-10T01:53:07;13.00;;;6.70;;
78840;SDS011;68379;47.190;27.558;2023-05-10T01:55:41;13.70;;;7.70;;
78840;SDS011;68379;47.190;27.558;2023-05-10T01:58:17;11.30;;;7.90;;
78840;SDS011;68379;47.190;27.558;2023-05-10T02:00:50;12.40;;;7.50;;
78840;SDS011;68379;47.190;27.558;2023-05-10T02:03:22;11.20;;;7.70;;
78840;SDS011;68379;47.190;27.558;2023-05-10T02:05:54;12.20;;;7.30;;
78840;SDS011;68379;47.190;27.558;2023-05-10T02:08:24;13.00;;;7.20;;
78840;SDS011;68379;47.190;27.558;2023-05-10T02:10:55;11.00;;;7.70;;
78840;SDS011;68379;47.190;27.558;2023-05-10T02:13:26;12.70;;;8.40;;
78840;SDS011;68379;47.190;27.558;2023-05-10T02:15:57;12.20;;;7.20;;
78840;SDS011;68379;47.190;27.558;2023-05-10T02:18:27;14.60;;;8.00;;
78840;SDS011;68379;47.190;27.558;2023-05-10T02:20:58;11.70;;;7.80;;
78840;SDS011;68379;47.190;27.558;2023-05-10T02:23:29;14.20;;;8.40;;
78840;SDS011;68379;47.190;27.558;2023-05-10T02:25:59;12.70;;;8.40;;
78840;SDS011;68379;47.190;27.558;2023-05-10T02:28:30;12.60;;;8.50;;
78840;SDS011;68379;47.190;27.558;2023-05-10T03:01:09;13.90;;;8.40;;
78840;SDS011;68379;47.190;27.558;2023-05-10T03:03:38;12.60;;;8.10;;
78840;SDS011;68379;47.190;27.558;2023-05-10T03:06:07;13.30;;;8.00;;
78840;SDS011;68379;47.190;27.558;2023-05-10T03:08:37;17.10;;;9.70;;
78840;SDS011;68379;47.190;27.558;2023-05-10T03:11:13;17.10;;;9.90;;
78840;SDS011;68379;47.190;27.558;2023-05-10T03:14:01;15.00;;;9.20;;
78840;SDS011;68379;47.190;27.558;2023-05-10T03:16:40;13.90;;;8.70;;
78840;SDS011;68379;47.190;27.558;2023-05-10T03:19:15;16.40;;;10.00;;
78840;SDS011;68379;47.190;27.558;2023-05-10T03:21:52;14.10;;;7.70;;
78840;SDS011;68379;47.190;27.558;2023-05-10T03:24:25;14.40;;;9.20;;
78840;SDS011;68379;47.190;27.558;2023-05-10T03:26:56;12.80;;;8.50;;
78840;SDS011;68379;47.190;27.558;2023-05-10T03:29:29;14.70;;;8.80;;
78840;SDS011;68379;47.190;27.558;2023-05-10T03:31:59;15.90;;;8.50;;
78840;SDS011;68379;47.190;27.558;2023-05-10T03:34:29;14.50;;;8.60;;
78840;SDS011;68379;47.190;27.558;2023-05-10T03:36:58;17.30;;;9.90;;
78840;SDS011;68379;47.190;27.558;2023-05-10T03:39:30;14.70;;;8.70;;
78840;SDS011;68379;47.190;27.558;2023-05-10T03:41:59;13.60;;;8.30;;
78840;SDS011;68379;47.190;27.558;2023-05-10T03:44:28;11.00;;;7.40;;
78840;SDS011;68379;47.190;27.558;2023-05-10T03:46:57;12.40;;;7.10;;
78840;SDS011;68379;47.190;27.558;2023-05-10T03:49:27;13.80;;;8.80;;
78840;SDS011;68379;47.190;27.558;2023-05-10T03:51:56;13.70;;;8.50;;
78840;SDS011;68379;47.190;27.558;2023-05-10T03:54:25;14.80;;;8.40;;
78840;SDS011;68379;47.190;27.558;2023-05-10T03:56:54;14.20;;;7.90;;
78840;SDS011;68379;47.190;27.558;2023-05-10T03:59:23;12.50;;;6.70;;
78840;SDS011;68379;47.190;27.558;2023-05-10T04:01:53;11.10;;;6.50;;
78840;SDS011;68379;47.190;27.558;2023-05-10T04:04:22;9.10;;;5.30;;
78840;SDS011;68379;47.190;27.558;2023-05-10T04:06:52;9.50;;;5.90;;
78840;SDS011;68379;47.190;27.558;2023-05-10T04:09:22;11.40;;;6.50;;
78840;SDS011;68379;47.190;27.558;2023-05-10T04:11:51;12.30;;;6.60;;
78840;SDS011;68379;47.190;27.558;2023-05-10T04:14:20;11.70;;;6.80;;
78840;SDS011;68379;47.190;27.558;2023-05-10T04:16:49;12.20;;;6.70;;
78840;SDS011;68379;47.190;27.558;2023-05-10T04:19:19;12.00;;;6.90;;
78840;SDS011;68379;47.190;27.558;2023-05-10T04:21:48;11.00;;;6.30;;
78840;SDS011;68379;47.190;27.558;2023-05-10T04:24:18;9.60;;;6.80;;
78840;SDS011;68379;47.190;27.558;2023-05-10T04:26:47;10.80;;;6.90;;
78840;SDS011;68379;47.190;27.558;2023-05-10T04:29:16;8.30;;;5.30;;
78840;SDS011;68379;47.190;27.558;2023-05-10T04:31:45;10.80;;;6.20;;
78840;SDS011;68379;47.190;27.558;2023-05-10T04:34:15;11.60;;;6.40;;
78840;SDS011;68379;47.190;27.558;2023-05-10T04:36:45;10.90;;;6.50;;
78840;SDS011;68379;47.190;27.558;2023-05-10T04:39:15;9.30;;;6.20;;
78840;SDS011;68379;47.190;27.558;2023-05-10T04:41:44;11.80;;;6.00;;
78840;SDS011;68379;47.190;27.558;2023-05-10T04:44:13;13.10;;;7.00;;
78840;SDS011;68379;47.190;27.558;2023-05-10T04:46:42;11.50;;;7.40;;
78840;SDS011;68379;47.190;27.558;2023-05-10T04:49:11;10.90;;;6.60;;
78840;SDS011;68379;47.190;27.558;2023-05-10T04:51:41;12.50;;;7.50;;
78840;SDS011;68379;47.190;27.558;2023-05-10T04:54:10;10.70;;;7.10;;
78840;SDS011;68379;47.190;27.558;2023-05-10T04:56:39;11.50;;;6.40;;
78840;SDS011;68379;47.190;27.558;2023-05-10T04:59:08;10.20;;;7.00;;
78840;SDS011;68379;47.190;27.558;2023-05-10T05:01:38;11.40;;;6.20;;
78840;SDS011;68379;47.190;27.558;2023-05-10T05:04:07;8.80;;;6.30;;
78840;SDS011;68379;47.190;27.558;2023-05-10T05:06:36;10.30;;;6.90;;
78840;SDS011;68379;47.190;27.558;2023-05-10T05:09:05;14.40;;;7.40;;
78840;SDS011;68379;47.190;27.558;2023-05-10T05:11:34;12.50;;;7.60;;
78840;SDS011;68379;47.190;27.558;2023-05-10T05:14:03;10.80;;;7.90;;
78840;SDS011;68379;47.190;27.558;2023-05-10T05:16:32;13.30;;;8.10;;
78840;SDS011;68379;47.190;27.558;2023-05-10T05:19:01;13.10;;;8.30;;
78840;SDS011;68379;47.190;27.558;2023-05-10T05:21:30;12.40;;;7.90;;
78840;SDS011;68379;47.190;27.558;2023-05-10T05:23:59;14.40;;;8.10;;
78840;SDS011;68379;47.190;27.558;2023-05-10T05:26:28;15.60;;;8.30;;
78840;SDS011;68379;47.190;27.558;2023-05-10T05:28:57;11.10;;;6.60;;
78840;SDS011;68379;47.190;27.558;2023-05-10T05:31:26;10.40;;;7.50;;
78840;SDS011;68379;47.190;27.558;2023-05-10T05:33:55;11.90;;;7.30;;
78840;SDS011;68379;47.190;27.558;2023-05-10T05:36:24;10.00;;;7.00;;
78840;SDS011;68379;47.190;27.558;2023-05-10T05:38:53;11.70;;;7.70;;
78840;SDS011;68379;47.190;27.558;2023-05-10T05:41:23;9.20;;;6.60;;
78840;SDS011;68379;47.190;27.558;2023-05-10T05:43:52;10.70;;;6.50;;
78840;SDS011;68379;47.190;27.558;2023-05-10T05:46:20;12.20;;;6.80;;
78840;SDS011;68379;47.190;27.558;2023-05-10T05:48:50;10.20;;;6.60;;
78840;SDS011;68379;47.190;27.558;2023-05-10T05:51:19;12.20;;;5.40;;
78840;SDS011;68379;47.190;27.558;2023-05-10T05:53:48;7.30;;;5.00;;
78840;SDS011;68379;47.190;27.558;2023-05-10T05:56:18;10.80;;;5.90;;
78840;SDS011;68379;47.190;27.558;2023-05-10T05:58:51;9.10;;;5.70;;
78840;SDS011;68379;47.190;27.558;2023-05-10T06:01:21;12.20;;;5.20;;
78840;SDS011;68379;47.190;27.558;2023-05-10T06:03:50;7.50;;;5.00;;
78840;SDS011;68379;47.190;27.558;2023-05-10T06:06:19;6.60;;;4.80;;
78840;SDS011;68379;47.190;27.558;2023-05-10T06:08:48;6.30;;;3.70;;
78840;SDS011;68379;47.190;27.558;2023-05-10T06:11:18;6.40;;;4.10;;
78840;SDS011;68379;47.190;27.558;2023-05-10T06:13:48;6.10;;;4.20;;
78840;SDS011;68379;47.190;27.558;2023-05-10T06:16:17;5.30;;;4.40;;
78840;SDS011;68379;47.190;27.558;2023-05-10T06:18:47;7.70;;;3.70;;
78840;SDS011;68379;47.190;27.558;2023-05-10T06:21:16;6.00;;;4.10;;
78840;SDS011;68379;47.190;27.558;2023-05-10T06:23:45;7.90;;;4.00;;
78840;SDS011;68379;47.190;27.558;2023-05-10T06:26:14;10.30;;;3.80;;
78840;SDS011;68379;47.190;27.558;2023-05-10T06:28:43;4.60;;;3.40;;
78840;SDS011;68379;47.190;27.558;2023-05-10T06:31:12;6.80;;;4.30;;
78840;SDS011;68379;47.190;27.558;2023-05-10T06:33:41;5.70;;;3.30;;
78840;SDS011;68379;47.190;27.558;2023-05-10T06:36:10;5.40;;;3.80;;
78840;SDS011;68379;47.190;27.558;2023-05-10T06:38:40;7.20;;;3.40;;
78840;SDS011;68379;47.190;27.558;2023-05-10T06:41:09;9.00;;;3.60;;
78840;SDS011;68379;47.190;27.558;2023-05-10T06:43:38;6.40;;;3.60;;
78840;SDS011;68379;47.190;27.558;2023-05-10T06:46:08;6.40;;;3.80;;
78840;SDS011;68379;47.190;27.558;2023-05-10T06:48:37;5.30;;;3.70;;
78840;SDS011;68379;47.190;27.558;2023-05-10T06:51:06;6.30;;;3.50;;
78840;SDS011;68379;47.190;27.558;2023-05-10T06:53:35;6.10;;;3.50;;
78840;SDS011;68379;47.190;27.558;2023-05-10T06:56:05;6.70;;;3.60;;
78840;SDS011;68379;47.190;27.558;2023-05-10T06:58:34;5.80;;;3.70;;
78840;SDS011;68379;47.190;27.558;2023-05-10T07:01:03;5.90;;;4.00;;
78840;SDS011;68379;47.190;27.558;2023-05-10T07:03:33;5.50;;;3.40;;
78840;SDS011;68379;47.190;27.558;2023-05-10T07:06:02;7.30;;;3.30;;
78840;SDS011;68379;47.190;27.558;2023-05-10T07:08:34;4.90;;;3.20;;
78840;SDS011;68379;47.190;27.558;2023-05-10T07:11:03;7.30;;;3.60;;
78840;SDS011;68379;47.190;27.558;2023-05-10T07:13:34;6.80;;;3.60;;
78840;SDS011;68379;47.190;27.558;2023-05-10T07:16:05;6.10;;;3.40;;
78840;SDS011;68379;47.190;27.558;2023-05-10T07:18:34;7.50;;;3.60;;
78840;SDS011;68379;47.190;27.558;2023-05-10T07:21:04;5.40;;;3.10;;
78840;SDS011;68379;47.190;27.558;2023-05-10T07:23:33;4.30;;;2.90;;
78840;SDS011;68379;47.190;27.558;2023-05-10T07:26:02;6.00;;;2.20;;
78840;SDS011;68379;47.190;27.558;2023-05-10T07:28:32;4.80;;;2.90;;
78840;SDS011;68379;47.190;27.558;2023-05-10T07:31:04;3.20;;;2.50;;
78840;SDS011;68379;47.190;27.558;2023-05-10T07:33:33;4.30;;;2.50;;
78840;SDS011;68379;47.190;27.558;2023-05-10T07:36:02;6.40;;;2.60;;
78840;SDS011;68379;47.190;27.558;2023-05-10T07:38:32;3.40;;;1.90;;
78840;SDS011;68379;47.190;27.558;2023-05-10T07:41:01;4.80;;;1.80;;
78840;SDS011;68379;47.190;27.558;2023-05-10T07:43:30;4.10;;;2.10;;
78840;SDS011;68379;47.190;27.558;2023-05-10T07:45:59;4.50;;;2.30;;
78840;SDS011;68379;47.190;27.558;2023-05-10T07:48:28;4.90;;;2.60;;
78840;SDS011;68379;47.190;27.558;2023-05-10T07:50:58;4.50;;;2.30;;
78840;SDS011;68379;47.190;27.558;2023-05-10T07:53:27;3.60;;;2.30;;
78840;SDS011;68379;47.190;27.558;2023-05-10T07:55:57;5.50;;;2.40;;
78840;SDS011;68379;47.190;27.558;2023-05-10T07:58:27;5.50;;;2.30;;
78840;SDS011;68379;47.190;27.558;2023-05-10T08:00:56;3.80;;;1.70;;
78840;SDS011;68379;47.190;27.558;2023-05-10T08:03:25;2.70;;;1.70;;
78840;SDS011;68379;47.190;27.558;2023-05-10T08:05:53;3.60;;;2.20;;
78840;SDS011;68379;47.190;27.558;2023-05-10T08:08:23;3.40;;;1.80;;
78840;SDS011;68379;47.190;27.558;2023-05-10T08:10:52;2.50;;;1.70;;
78840;SDS011;68379;47.190;27.558;2023-05-10T08:13:21;4.60;;;2.80;;
78840;SDS011;68379;47.190;27.558;2023-05-10T08:15:50;5.70;;;1.80;;
78840;SDS011;68379;47.190;27.558;2023-05-10T08:18:20;3.10;;;2.20;;
78840;SDS011;68379;47.190;27.558;2023-05-10T08:20:49;5.60;;;1.90;;
78840;SDS011;68379;47.190;27.558;2023-05-10T08:23:18;4.80;;;2.20;;
78840;SDS011;68379;47.190;27.558;2023-05-10T08:25:47;4.00;;;2.90;;
78840;SDS011;68379;47.190;27.558;2023-05-10T08:28:16;5.40;;;2.30;;
78840;SDS011;68379;47.190;27.558;2023-05-10T08:30:45;3.40;;;1.80;;
78840;SDS011;68379;47.190;27.558;2023-05-10T08:33:14;5.90;;;2.40;;
78840;SDS011;68379;47.190;27.558;2023-05-10T08:35:43;5.20;;;2.20;;
78840;SDS011;68379;47.190;27.558;2023-05-10T08:38:12;3.50;;;2.20;;
78840;SDS011;68379;47.190;27.558;2023-05-10T08:40:42;3.60;;;2.30;;
78840;SDS011;68379;47.190;27.558;2023-05-10T08:43:12;5.20;;;1.70;;
78840;SDS011;68379;47.190;27.558;2023-05-10T08:45:43;5.20;;;2.40;;
78840;SDS011;68379;47.190;27.558;2023-05-10T08:48:14;3.30;;;2.20;;
78840;SDS011;68379;47.190;27.558;2023-05-10T08:50:44;4.40;;;1.70;;
78840;SDS011;68379;47.190;27.558;2023-05-10T08:53:15;5.10;;;1.80;;
78840;SDS011;68379;47.190;27.558;2023-05-10T08:55:46;4.00;;;1.60;;
78840;SDS011;68379;47.190;27.558;2023-05-10T08:58:16;5.00;;;1.80;;
78840;SDS011;68379;47.190;27.558;2023-05-10T09:00:46;6.00;;;2.10;;
78840;SDS011;68379;47.190;27.558;2023-05-10T09:03:16;2.50;;;1.90;;
78840;SDS011;68379;47.190;27.558;2023-05-10T09:05:45;3.50;;;1.60;;
78840;SDS011;68379;47.190;27.558;2023-05-10T09:08:15;5.50;;;1.70;;
78840;SDS011;68379;47.190;27.558;2023-05-10T09:10:45;2.90;;;1.50;;
78840;SDS011;68379;47.190;27.558;2023-05-10T09:13:15;3.50;;;1.40;;
78840;SDS011;68379;47.190;27.558;2023-05-10T09:15:47;3.80;;;1.60;;
78840;SDS011;68379;47.190;27.558;2023-05-10T09:18:16;2.90;;;1.90;;
78840;SDS011;68379;47.190;27.558;2023-05-10T09:20:46;6.00;;;1.70;;
78840;SDS011;68379;47.190;27.558;2023-05-10T09:23:16;4.60;;;1.80;;
78840;SDS011;68379;47.190;27.558;2023-05-10T09:25:45;4.40;;;1.90;;
78840;SDS011;68379;47.190;27.558;2023-05-10T09:28:14;2.90;;;1.50;;
78840;SDS011;68379;47.190;27.558;2023-05-10T09:30:43;2.60;;;1.70;;
78840;SDS011;68379;47.190;27.558;2023-05-10T09:33:22;2.30;;;1.70;;
78840;SDS011;68379;47.190;27.558;2023-05-10T09:35:52;5.30;;;1.80;;
78840;SDS011;68379;47.190;27.558;2023-05-10T09:38:21;6.40;;;2.10;;
78840;SDS011;68379;47.190;27.558;2023-05-10T09:40:53;2.60;;;1.60;;
78840;SDS011;68379;47.190;27.558;2023-05-10T09:43:25;2.30;;;1.40;;
78840;SDS011;68379;47.190;27.558;2023-05-10T09:45:54;5.40;;;1.80;;
78840;SDS011;68379;47.190;27.558;2023-05-10T09:48:24;3.60;;;2.00;;
78840;SDS011;68379;47.190;27.558;2023-05-10T09:50:57;4.40;;;1.90;;
78840;SDS011;68379;47.190;27.558;2023-05-10T09:53:27;3.60;;;2.10;;
78840;SDS011;68379;47.190;27.558;2023-05-10T09:55:56;2.50;;;1.70;;
78840;SDS011;68379;47.190;27.558;2023-05-10T09:58:26;5.70;;;1.90;;
78840;SDS011;68379;47.190;27.558;2023-05-10T10:00:55;3.20;;;2.10;;
78840;SDS011;68379;47.190;27.558;2023-05-10T10:03:25;3.50;;;2.20;;
78840;SDS011;68379;47.190;27.558;2023-05-10T10:05:56;4.70;;;2.10;;
78840;SDS011;68379;47.190;27.558;2023-05-10T10:08:29;2.80;;;1.50;;
78840;SDS011;68379;47.190;27.558;2023-05-10T10:10:59;3.00;;;1.70;;
78840;SDS011;68379;47.190;27.558;2023-05-10T10:13:29;4.60;;;1.90;;
78840;SDS011;68379;47.190;27.558;2023-05-10T10:15:59;6.40;;;2.20;;
78840;SDS011;68379;47.190;27.558;2023-05-10T10:18:28;5.90;;;2.20;;
78840;SDS011;68379;47.190;27.558;2023-05-10T10:21:00;5.50;;;2.10;;
78840;SDS011;68379;47.190;27.558;2023-05-10T10:23:30;5.00;;;2.30;;
78840;SDS011;68379;47.190;27.558;2023-05-10T10:26:00;3.20;;;1.90;;
78840;SDS011;68379;47.190;27.558;2023-05-10T10:28:34;3.30;;;1.50;;
78840;SDS011;68379;47.190;27.558;2023-05-10T10:31:17;4.40;;;1.60;;
78840;SDS011;68379;47.190;27.558;2023-05-10T10:34:00;4.00;;;1.70;;
78840;SDS011;68379;47.190;27.558;2023-05-10T10:36:33;3.30;;;1.70;;
78840;SDS011;68379;47.190;27.558;2023-05-10T10:39:10;2.50;;;1.60;;
78840;SDS011;68379;47.190;27.558;2023-05-10T10:41:40;4.30;;;2.00;;
78840;SDS011;68379;47.190;27.558;2023-05-10T10:44:35;4.00;;;1.90;;
78840;SDS011;68379;47.190;27.558;2023-05-10T10:47:22;4.00;;;1.70;;
78840;SDS011;68379;47.190;27.558;2023-05-10T10:50:03;2.70;;;1.50;;
78840;SDS011;68379;47.190;27.558;2023-05-10T10:52:35;2.70;;;1.70;;
78840;SDS011;68379;47.190;27.558;2023-05-10T10:55:07;3.40;;;1.70;;
78840;SDS011;68379;47.190;27.558;2023-05-10T10:57:47;3.70;;;1.60;;
78840;SDS011;68379;47.190;27.558;2023-05-10T11:00:20;3.00;;;1.80;;
78840;SDS011;68379;47.190;27.558;2023-05-10T11:02:51;3.20;;;1.50;;
78840;SDS011;68379;47.190;27.558;2023-05-10T11:08:13;2.90;;;1.70;;
78840;SDS011;68379;47.190;27.558;2023-05-10T11:10:50;4.30;;;1.70;;
78840;SDS011;68379;47.190;27.558;2023-05-10T11:13:31;5.90;;;1.70;;
78840;SDS011;68379;47.190;27.558;2023-05-10T11:16:15;5.30;;;1.80;;
78840;SDS011;68379;47.190;27.558;2023-05-10T11:18:56;2.30;;;1.50;;
78840;SDS011;68379;47.190;27.558;2023-05-10T11:21:28;4.30;;;1.90;;
78840;SDS011;68379;47.190;27.558;2023-05-10T11:24:00;3.20;;;1.50;;
78840;SDS011;68379;47.190;27.558;2023-05-10T11:26:33;4.20;;;1.50;;
78840;SDS011;68379;47.190;27.558;2023-05-10T11:29:03;3.70;;;2.00;;
78840;SDS011;68379;47.190;27.558;2023-05-10T11:31:32;4.70;;;1.80;;
78840;SDS011;68379;47.190;27.558;2023-05-10T11:34:02;3.70;;;1.70;;
78840;SDS011;68379;47.190;27.558;2023-05-10T11:36:33;2.00;;;1.60;;
78840;SDS011;68379;47.190;27.558;2023-05-10T11:39:03;2.70;;;1.70;;
78840;SDS011;68379;47.190;27.558;2023-05-10T11:41:32;2.10;;;1.60;;
78840;SDS011;68379;47.190;27.558;2023-05-10T11:44:02;2.90;;;1.80;;
78840;SDS011;68379;47.190;27.558;2023-05-10T11:46:31;2.80;;;2.00;;
78840;SDS011;68379;47.190;27.558;2023-05-10T11:49:01;3.10;;;1.80;;
78840;SDS011;68379;47.190;27.558;2023-05-10T11:51:36;3.00;;;1.50;;
78840;SDS011;68379;47.190;27.558;2023-05-10T11:54:06;2.60;;;1.50;;
78840;SDS011;68379;47.190;27.558;2023-05-10T11:56:36;3.80;;;1.70;;
78840;SDS011;68379;47.190;27.558;2023-05-10T11:59:07;2.90;;;1.60;;
78840;SDS011;68379;47.190;27.558;2023-05-10T12:01:36;5.70;;;2.20;;
78840;SDS011;68379;47.190;27.558;2023-05-10T12:04:05;2.50;;;1.70;;
78840;SDS011;68379;47.190;27.558;2023-05-10T12:06:36;2.80;;;1.90;;
78840;SDS011;68379;47.190;27.558;2023-05-10T12:09:08;3.20;;;1.60;;
78840;SDS011;68379;47.190;27.558;2023-05-10T12:11:38;2.70;;;2.30;;
78840;SDS011;68379;47.190;27.558;2023-05-10T12:14:08;4.40;;;2.20;;
78840;SDS011;68379;47.190;27.558;2023-05-10T12:16:37;3.00;;;2.00;;
78840;SDS011;68379;47.190;27.558;2023-05-10T12:19:06;4.60;;;2.00;;
78840;SDS011;68379;47.190;27.558;2023-05-10T12:21:35;4.40;;;3.00;;
78840;SDS011;68379;47.190;27.558;2023-05-10T12:24:05;2.30;;;1.60;;
78840;SDS011;68379;47.190;27.558;2023-05-10T12:26:35;3.70;;;1.90;;
78840;SDS011;68379;47.190;27.558;2023-05-10T12:29:14;3.50;;;2.20;;
78840;SDS011;68379;47.190;27.558;2023-05-10T12:31:52;3.80;;;2.10;;
78840;SDS011;68379;47.190;27.558;2023-05-10T12:34:25;3.50;;;2.20;;
78840;SDS011;68379;47.190;27.558;2023-05-10T12:36:58;3.40;;;2.20;;
78840;SDS011;68379;47.190;27.558;2023-05-10T12:39:38;6.80;;;2.50;;
78840;SDS011;68379;47.190;27.558;2023-05-10T12:42:08;4.00;;;2.20;;
78840;SDS011;68379;47.190;27.558;2023-05-10T12:44:38;3.90;;;2.20;;
78840;SDS011;68379;47.190;27.558;2023-05-10T12:47:07;2.80;;;2.00;;
78840;SDS011;68379;47.190;27.558;2023-05-10T12:49:37;2.90;;;1.80;;
78840;SDS011;68379;47.190;27.558;2023-05-10T12:52:07;5.20;;;2.20;;
78840;SDS011;68379;47.190;27.558;2023-05-10T12:54:36;4.70;;;2.00;;
78840;SDS011;68379;47.190;27.558;2023-05-10T12:57:05;2.60;;;2.10;;
78840;SDS011;68379;47.190;27.558;2023-05-10T12:59:34;4.70;;;2.30;;
78840;SDS011;68379;47.190;27.558;2023-05-10T13:02:03;3.70;;;1.50;;
78840;SDS011;68379;47.190;27.558;2023-05-10T13:04:32;5.10;;;1.90;;
78840;SDS011;68379;47.190;27.558;2023-05-10T13:07:01;4.60;;;1.80;;
78840;SDS011;68379;47.190;27.558;2023-05-10T13:09:30;4.10;;;2.10;;
78840;SDS011;68379;47.190;27.558;2023-05-10T13:11:59;4.00;;;2.20;;
78840;SDS011;68379;47.190;27.558;2023-05-10T13:14:29;2.30;;;1.80;;
78840;SDS011;68379;47.190;27.558;2023-05-10T13:16:58;3.60;;;2.00;;
78840;SDS011;68379;47.190;27.558;2023-05-10T13:19:27;4.40;;;2.10;;
78840;SDS011;68379;47.190;27.558;2023-05-10T13:21:56;3.00;;;2.30;;
78840;SDS011;68379;47.190;27.558;2023-05-10T13:24:25;4.20;;;1.80;;
78840;SDS011;68379;47.190;27.558;2023-05-10T13:26:54;4.40;;;1.90;;
78840;SDS011;68379;47.190;27.558;2023-05-10T13:29:23;4.00;;;2.00;;
78840;SDS011;68379;47.190;27.558;2023-05-10T13:31:52;2.60;;;2.10;;
78840;SDS011;68379;47.190;27.558;2023-05-10T13:34:22;3.60;;;2.10;;
78840;SDS011;68379;47.190;27.558;2023-05-10T13:36:51;3.20;;;2.10;;
78840;SDS011;68379;47.190;27.558;2023-05-10T13:39:23;4.10;;;2.10;;
78840;SDS011;68379;47.190;27.558;2023-05-10T13:41:52;2.90;;;2.00;;
78840;SDS011;68379;47.190;27.558;2023-05-10T13:44:21;5.90;;;2.30;;
78840;SDS011;68379;47.190;27.558;2023-05-10T13:46:50;2.90;;;1.90;;
78840;SDS011;68379;47.190;27.558;2023-05-10T13:49:19;3.10;;;1.90;;
78840;SDS011;68379;47.190;27.558;2023-05-10T13:51:48;2.30;;;1.90;;
78840;SDS011;68379;47.190;27.558;2023-05-10T13:54:18;2.00;;;1.50;;
78840;SDS011;68379;47.190;27.558;2023-05-10T13:56:49;2.50;;;2.00;;
78840;SDS011;68379;47.190;27.558;2023-05-10T13:59:18;3.90;;;1.80;;
78840;SDS011;68379;47.190;27.558;2023-05-10T14:01:46;3.10;;;1.80;;
78840;SDS011;68379;47.190;27.558;2023-05-10T14:04:16;5.60;;;1.90;;
78840;SDS011;68379;47.190;27.558;2023-05-10T14:06:45;5.10;;;2.20;;
78840;SDS011;68379;47.190;27.558;2023-05-10T14:09:14;4.60;;;2.00;;
78840;SDS011;68379;47.190;27.558;2023-05-10T14:11:43;3.20;;;2.50;;
78840;SDS011;68379;47.190;27.558;2023-05-10T14:14:12;5.00;;;1.90;;
78840;SDS011;68379;47.190;27.558;2023-05-10T14:16:42;4.90;;;2.10;;
78840;SDS011;68379;47.190;27.558;2023-05-10T14:19:12;8.20;;;2.30;;
78840;SDS011;68379;47.190;27.558;2023-05-10T14:21:41;2.90;;;1.80;;
78840;SDS011;68379;47.190;27.558;2023-05-10T14:24:10;4.10;;;2.10;;
78840;SDS011;68379;47.190;27.558;2023-05-10T14:26:39;3.80;;;2.00;;
78840;SDS011;68379;47.190;27.558;2023-05-10T14:29:08;4.90;;;2.00;;
78840;SDS011;68379;47.190;27.558;2023-05-10T14:31:37;3.50;;;1.80;;
78840;SDS011;68379;47.190;27.558;2023-05-10T14:34:07;2.10;;;1.70;;
78840;SDS011;68379;47.190;27.558;2023-05-10T14:36:36;6.60;;;2.10;;
78840;SDS011;68379;47.190;27.558;2023-05-10T14:39:05;3.50;;;1.90;;
78840;SDS011;68379;47.190;27.558;2023-05-10T14:41:34;2.90;;;1.90;;
78840;SDS011;68379;47.190;27.558;2023-05-10T14:44:04;2.40;;;1.90;;
78840;SDS011;68379;47.190;27.558;2023-05-10T14:46:32;3.30;;;1.90;;
78840;SDS011;68379;47.190;27.558;2023-05-10T14:49:02;4.90;;;2.00;;
78840;SDS011;68379;47.190;27.558;2023-05-10T14:51:31;2.20;;;1.80;;
78840;SDS011;68379;47.190;27.558;2023-05-10T14:54:00;2.70;;;1.90;;
78840;SDS011;68379;47.190;27.558;2023-05-10T14:56:29;3.30;;;1.90;;
78840;SDS011;68379;47.190;27.558;2023-05-10T14:58:58;4.70;;;1.70;;
78840;SDS011;68379;47.190;27.558;2023-05-10T15:01:27;2.80;;;1.70;;
78840;SDS011;68379;47.190;27.558;2023-05-10T15:03:56;2.40;;;1.70;;
78840;SDS011;68379;47.190;27.558;2023-05-10T15:06:31;4.70;;;1.90;;
78840;SDS011;68379;47.190;27.558;2023-05-10T15:09:01;4.20;;;1.80;;
78840;SDS011;68379;47.190;27.558;2023-05-10T15:11:31;4.60;;;1.70;;
78840;SDS011;68379;47.190;27.558;2023-05-10T15:14:00;2.40;;;1.60;;
78840;SDS011;68379;47.190;27.558;2023-05-10T15:16:29;3.10;;;1.70;;
78840;SDS011;68379;47.190;27.558;2023-05-10T15:18:58;5.00;;;1.90;;
78840;SDS011;68379;47.190;27.558;2023-05-10T15:21:27;3.50;;;1.50;;
78840;SDS011;68379;47.190;27.558;2023-05-10T15:24:02;3.00;;;1.70;;